createdAt,value
2023-05-08T00:00:29.011Z,145.00
2023-05-08T00:01:29.091Z,146.00
2023-05-08T00:02:29.122Z,143.00
2023-05-08T00:03:29.247Z,143.00
2023-05-08T00:04:29.212Z,142.00
2023-05-08T00:05:29.172Z,142.00
2023-05-08T00:06:29.191Z,141.00
2023-05-08T00:07:29.273Z,141.00
2023-05-08T00:08:29.244Z,140.00
2023-05-08T00:09:29.276Z,138.00
2023-05-08T00:10:29.285Z,138.00
2023-05-08T00:11:29.325Z,140.00
2023-05-08T00:12:29.329Z,142.00
2023-05-08T00:13:29.396Z,142.00
2023-05-08T00:14:29.423Z,142.00
2023-05-08T00:15:29.445Z,143.00
2023-05-08T00:16:29.534Z,144.00
2023-05-08T00:17:29.562Z,146.00
2023-05-08T00:18:29.466Z,145.00
2023-05-08T00:19:29.591Z,145.00
2023-05-08T00:20:29.633Z,146.00
2023-05-08T00:21:29.568Z,145.00
2023-05-08T00:22:29.641Z,144.00
2023-05-08T00:23:29.659Z,145.00
2023-05-08T00:24:29.654Z,146.00
2023-05-08T00:25:29.668Z,148.00
2023-05-08T00:26:29.711Z,148.00
2023-05-08T00:27:29.702Z,148.00
2023-05-08T00:28:30.059Z,146.00
2023-05-08T00:29:29.801Z,145.00
2023-05-08T00:30:29.794Z,147.00
2023-05-08T00:31:29.876Z,146.00
2023-05-08T00:32:30.014Z,147.00
2023-05-08T00:33:29.919Z,147.00
2023-05-08T00:34:29.948Z,148.00
2023-05-08T00:35:29.962Z,147.00
2023-05-08T00:36:29.978Z,146.00
2023-05-08T00:37:29.994Z,145.00
2023-05-08T00:38:30.066Z,146.00
2023-05-08T00:39:31.044Z,146.00
2023-05-08T00:40:30.117Z,146.00
2023-05-08T00:41:30.041Z,147.00
2023-05-08T00:42:30.096Z,147.00
2023-05-08T00:43:30.106Z,147.00
2023-05-08T00:44:30.130Z,147.00
2023-05-08T00:45:30.168Z,147.00
2023-05-08T00:46:30.269Z,147.00
2023-05-08T00:47:30.242Z,148.00
2023-05-08T00:48:30.241Z,148.00
2023-05-08T00:49:30.245Z,149.00
2023-05-08T00:50:30.251Z,149.00
2023-05-08T00:51:30.275Z,148.00
2023-05-08T00:52:30.292Z,145.00
2023-05-08T00:53:30.384Z,143.00
2023-05-08T00:54:30.388Z,144.00
2023-05-08T00:55:30.389Z,144.00
2023-05-08T00:56:31.070Z,145.00
2023-05-08T00:57:30.454Z,143.00
2023-05-08T00:58:30.459Z,144.00
2023-05-08T00:59:30.523Z,145.00
2023-05-08T01:00:30.528Z,147.00
2023-05-08T01:01:30.552Z,147.00
2023-05-08T01:02:30.610Z,146.00
2023-05-08T01:03:30.685Z,146.00
2023-05-08T01:04:30.611Z,147.00
2023-05-08T01:05:30.765Z,148.00
2023-05-08T01:06:30.678Z,151.00
2023-05-08T01:07:30.732Z,152.00
2023-05-08T01:08:30.742Z,152.00
2023-05-08T01:09:30.794Z,152.00
2023-05-08T01:10:30.963Z,148.00
2023-05-08T01:11:30.857Z,151.00
2023-05-08T01:12:30.865Z,152.00
2023-05-08T01:13:30.862Z,151.00
2023-05-08T01:14:30.941Z,149.00
2023-05-08T01:15:30.945Z,150.00
2023-05-08T01:16:30.960Z,150.00
2023-05-08T01:17:31.141Z,149.00
2023-05-08T01:18:31.011Z,147.00
2023-05-08T01:19:31.017Z,148.00
2023-05-08T01:20:31.086Z,149.00
2023-05-08T01:21:31.090Z,150.00
2023-05-08T01:22:31.092Z,149.00
2023-05-08T01:23:31.255Z,147.00
2023-05-08T01:24:31.199Z,145.00
2023-05-08T01:25:31.215Z,144.00
2023-05-08T01:26:31.215Z,144.00
2023-05-08T01:27:31.229Z,144.00
2023-05-08T01:28:31.280Z,143.00
2023-05-08T01:29:31.293Z,145.00
2023-05-08T01:30:31.252Z,145.00
2023-05-08T01:31:31.329Z,143.00
2023-05-08T01:32:31.478Z,142.00
2023-05-08T01:33:31.365Z,143.00
2023-05-08T01:34:31.386Z,143.00
2023-05-08T01:35:32.110Z,144.00
2023-05-08T01:36:31.481Z,146.00
2023-05-08T01:37:31.449Z,148.00
2023-05-08T01:38:31.522Z,149.00
2023-05-08T01:39:31.532Z,148.00
2023-05-08T01:40:31.547Z,146.00
2023-05-08T01:41:31.579Z,147.00
2023-05-08T01:42:31.588Z,147.00
2023-05-08T01:43:31.587Z,147.00
2023-05-08T01:44:31.642Z,146.00
2023-05-08T01:45:31.598Z,145.00
2023-05-08T01:46:31.717Z,146.00
2023-05-08T01:47:31.721Z,146.00
2023-05-08T01:48:31.759Z,142.00
2023-05-08T01:49:31.689Z,143.00
2023-05-08T01:50:31.740Z,144.00
2023-05-08T01:51:31.748Z,143.00
2023-05-08T01:52:31.794Z,143.00
2023-05-08T01:53:31.822Z,143.00
2023-05-08T01:54:31.841Z,144.00
2023-05-08T01:55:31.852Z,144.00
2023-05-08T01:56:31.853Z,145.00
2023-05-08T01:57:31.930Z,145.00
2023-05-08T01:58:31.978Z,148.00
2023-05-08T01:59:31.972Z,147.00
2023-05-08T02:00:31.957Z,146.00
2023-05-08T02:01:31.997Z,147.00
2023-05-08T02:02:32.090Z,145.00
2023-05-08T02:03:32.168Z,146.00
2023-05-08T02:04:32.066Z,147.00
2023-05-08T02:05:32.079Z,149.00
2023-05-08T02:06:32.061Z,147.00
2023-05-08T02:07:32.142Z,149.00
2023-05-08T02:08:32.112Z,151.00
2023-05-08T02:09:32.154Z,153.00
2023-05-08T02:10:32.156Z,151.00
2023-05-08T02:11:32.202Z,148.00
2023-05-08T02:12:32.194Z,147.00
2023-05-08T02:13:32.245Z,146.00
2023-05-08T02:14:32.243Z,146.00
2023-05-08T02:15:32.252Z,147.00
2023-05-08T02:16:32.251Z,148.00
2023-05-08T02:17:32.267Z,149.00
2023-05-08T02:18:32.297Z,148.00
2023-05-08T02:19:32.325Z,147.00
2023-05-08T02:20:32.316Z,147.00
2023-05-08T02:21:32.362Z,148.00
2023-05-08T02:22:32.358Z,147.00
2023-05-08T02:23:32.424Z,146.00
2023-05-08T02:24:32.406Z,143.00
2023-05-08T02:25:32.468Z,140.00
2023-05-08T02:26:32.545Z,142.00
2023-05-08T02:27:32.553Z,142.00
2023-05-08T02:28:32.556Z,144.00
2023-05-08T02:29:32.556Z,142.00
2023-05-08T02:30:32.609Z,140.00
2023-05-08T02:31:32.630Z,139.00
2023-05-08T02:32:32.611Z,138.00
2023-05-08T02:33:32.624Z,136.00
2023-05-08T02:34:32.680Z,135.00
2023-05-08T02:35:32.663Z,135.00
2023-05-08T02:36:32.713Z,135.00
2023-05-08T02:37:32.744Z,138.00
2023-05-08T02:38:32.769Z,141.00
2023-05-08T02:39:32.869Z,142.00
2023-05-08T02:40:32.778Z,142.00
2023-05-08T02:41:32.795Z,140.00
2023-05-08T02:42:33.157Z,139.00
2023-05-08T02:43:32.887Z,139.00
2023-05-08T02:44:32.890Z,139.00
2023-05-08T02:45:32.896Z,138.00
2023-05-08T02:46:32.996Z,138.00
2023-05-08T02:47:32.943Z,138.00
2023-05-08T02:48:32.985Z,141.00
2023-05-08T02:49:32.924Z,140.00
2023-05-08T02:50:32.957Z,141.00
2023-05-08T02:51:33.002Z,141.00
2023-05-08T02:52:33.006Z,142.00
2023-05-08T02:53:33.055Z,141.00
2023-05-08T02:54:33.059Z,141.00
2023-05-08T02:55:33.091Z,140.00
2023-05-08T02:56:33.145Z,138.00
2023-05-08T02:57:33.121Z,137.00
2023-05-08T02:58:33.143Z,138.00
2023-05-08T02:59:33.119Z,139.00
2023-05-08T03:00:33.190Z,138.00
2023-05-08T03:01:34.106Z,139.00
2023-05-08T03:02:33.320Z,140.00
2023-05-08T03:03:33.325Z,139.00
2023-05-08T03:04:33.306Z,140.00
2023-05-08T03:05:33.308Z,141.00
2023-05-08T03:06:33.342Z,141.00
2023-05-08T03:07:33.419Z,141.00
2023-05-08T03:08:33.359Z,140.00
2023-05-08T03:09:33.438Z,141.00
2023-05-08T03:10:33.400Z,142.00
2023-05-08T03:11:33.442Z,142.00
2023-05-08T03:12:33.548Z,142.00
2023-05-08T03:13:33.498Z,142.00
2023-05-08T03:14:33.570Z,141.00
2023-05-08T03:15:33.605Z,140.00
2023-05-08T03:16:33.624Z,140.00
2023-05-08T03:17:33.661Z,140.00
2023-05-08T03:18:33.645Z,140.00
2023-05-08T03:19:33.634Z,140.00
2023-05-08T03:20:33.652Z,141.00
2023-05-08T03:21:33.712Z,143.00
2023-05-08T03:22:33.731Z,144.00
2023-05-08T03:23:33.777Z,144.00
2023-05-08T03:24:33.789Z,144.00
2023-05-08T03:25:34.605Z,146.00
2023-05-08T03:26:33.847Z,145.00
2023-05-08T03:27:33.913Z,148.00
2023-05-08T03:28:33.909Z,147.00
2023-05-08T03:29:33.920Z,147.00
2023-05-08T03:30:33.918Z,148.00
2023-05-08T03:31:33.987Z,147.00
2023-05-08T03:32:34.025Z,145.00
2023-05-08T03:33:33.994Z,145.00
2023-05-08T03:34:34.014Z,145.00
2023-05-08T03:35:34.011Z,147.00
2023-05-08T03:36:34.066Z,147.00
2023-05-08T03:37:34.071Z,146.00
2023-05-08T03:38:34.076Z,146.00
2023-05-08T03:39:34.146Z,145.00
2023-05-08T03:40:34.197Z,145.00
2023-05-08T03:41:34.213Z,144.00
2023-05-08T03:42:34.237Z,143.00
2023-05-08T03:43:34.261Z,144.00
2023-05-08T03:44:34.288Z,145.00
2023-05-08T03:45:34.287Z,144.00
2023-05-08T03:46:34.411Z,145.00
2023-05-08T03:47:34.432Z,146.00
2023-05-08T03:48:34.378Z,146.00
2023-05-08T03:49:34.391Z,148.00
2023-05-08T03:50:34.408Z,151.00
2023-05-08T03:51:34.372Z,150.00
2023-05-08T03:52:34.371Z,148.00
2023-05-08T03:53:34.445Z,147.00
2023-05-08T03:54:34.460Z,146.00
2023-05-08T03:55:34.530Z,146.00
2023-05-08T03:56:34.489Z,146.00
2023-05-08T03:57:34.569Z,146.00
2023-05-08T03:58:34.542Z,146.00
2023-05-08T03:59:34.548Z,145.00
2023-05-08T04:00:34.547Z,145.00
2023-05-08T04:01:34.596Z,146.00
2023-05-08T04:02:34.746Z,145.00
2023-05-08T04:03:34.791Z,146.00
2023-05-08T04:04:34.695Z,147.00
2023-05-08T04:05:34.704Z,148.00
2023-05-08T04:06:48.461Z,150.00
2023-05-08T04:07:35.737Z,149.00
2023-05-08T04:08:34.757Z,149.00
2023-05-08T04:09:34.692Z,149.00
2023-05-08T04:10:34.696Z,150.00
2023-05-08T04:11:34.678Z,151.00
2023-05-08T04:12:34.644Z,152.00
2023-05-08T04:13:34.658Z,154.00
2023-05-08T04:14:34.671Z,154.00
2023-05-08T04:15:34.669Z,153.00
2023-05-08T04:16:34.669Z,155.00
2023-05-08T04:17:34.667Z,156.00
2023-05-08T04:18:34.649Z,157.00
2023-05-08T04:19:34.605Z,157.00
2023-05-08T04:20:34.606Z,158.00
2023-05-08T04:21:34.648Z,157.00
2023-05-08T04:22:34.611Z,155.00
2023-05-08T04:23:34.576Z,156.00
2023-05-08T04:24:34.575Z,157.00
2023-05-08T04:25:34.593Z,160.00
2023-05-08T04:26:34.575Z,163.00
2023-05-08T04:27:34.601Z,163.00
2023-05-08T04:28:34.608Z,165.00
2023-05-08T04:29:34.613Z,164.00
2023-05-08T04:30:34.683Z,161.00
2023-05-08T04:31:34.804Z,161.00
2023-05-08T04:32:34.771Z,160.00
2023-05-08T04:33:34.736Z,160.00
2023-05-08T04:34:34.746Z,161.00
2023-05-08T04:35:34.773Z,164.00
2023-05-08T04:36:34.840Z,166.00
2023-05-08T04:37:34.769Z,167.00
2023-05-08T04:38:34.839Z,168.00
2023-05-08T04:39:34.876Z,171.00
2023-05-08T04:40:34.886Z,170.00
2023-05-08T04:41:34.976Z,170.00
2023-05-08T04:42:34.902Z,170.00
2023-05-08T04:43:34.938Z,170.00
2023-05-08T04:44:34.992Z,173.00
2023-05-08T04:45:34.944Z,173.00
2023-05-08T04:46:35.176Z,172.00
2023-05-08T04:47:35.023Z,171.00
2023-05-08T04:48:35.050Z,171.00
2023-05-08T04:49:35.080Z,171.00
2023-05-08T04:50:35.058Z,171.00
2023-05-08T04:51:35.097Z,170.00
2023-05-08T04:52:35.379Z,174.00
2023-05-08T04:53:35.149Z,175.00
2023-05-08T04:54:35.177Z,176.00
2023-05-08T04:55:35.217Z,173.00
2023-05-08T04:56:35.223Z,172.00
2023-05-08T04:57:35.343Z,174.00
2023-05-08T04:58:35.279Z,172.00
2023-05-08T04:59:35.321Z,171.00
2023-05-08T05:00:36.153Z,171.00
2023-05-08T05:01:35.346Z,173.00
2023-05-08T05:02:35.486Z,176.00
2023-05-08T05:03:35.471Z,181.00
2023-05-08T05:04:35.416Z,185.00
2023-05-08T05:05:36.966Z,188.00
2023-05-08T05:06:35.397Z,190.00
2023-05-08T05:07:35.397Z,190.00
2023-05-08T05:08:35.381Z,192.00
2023-05-08T05:09:35.352Z,194.00
2023-05-08T05:10:35.373Z,198.00
2023-05-08T05:11:35.373Z,201.00
2023-05-08T05:12:35.332Z,205.00
2023-05-08T05:13:35.327Z,208.00
2023-05-08T05:14:35.321Z,207.00
2023-05-08T05:15:35.336Z,208.00
2023-05-08T05:16:35.434Z,209.00
2023-05-08T05:17:35.460Z,209.00
2023-05-08T05:18:35.304Z,210.00
2023-05-08T05:19:35.287Z,213.00
2023-05-08T05:20:35.265Z,214.00
2023-05-08T05:21:35.281Z,214.00
2023-05-08T05:22:35.295Z,216.00
2023-05-08T05:23:35.308Z,218.00
2023-05-08T05:24:35.255Z,222.00
2023-05-08T05:25:35.258Z,226.00
2023-05-08T05:26:36.787Z,227.00
2023-05-08T05:27:35.267Z,228.00
2023-05-08T05:28:35.201Z,229.00
2023-05-08T05:29:35.234Z,231.00
2023-05-08T05:30:35.232Z,238.00
2023-05-08T05:31:35.318Z,242.00
2023-05-08T05:32:35.332Z,243.00
2023-05-08T05:33:35.244Z,243.00
2023-05-08T05:34:35.216Z,242.00
2023-05-08T05:35:35.145Z,245.00
2023-05-08T05:36:35.236Z,248.00
2023-05-08T05:37:35.166Z,252.00
2023-05-08T05:38:35.178Z,254.00
2023-05-08T05:39:35.292Z,257.00
2023-05-08T05:40:35.194Z,257.00
2023-05-08T05:41:35.200Z,255.00
2023-05-08T05:42:35.419Z,256.00
2023-05-08T05:43:35.237Z,258.00
2023-05-08T05:44:35.249Z,259.00
2023-05-08T05:45:35.344Z,260.00
2023-05-08T05:46:35.331Z,257.00
2023-05-08T05:47:35.153Z,255.00
2023-05-08T05:48:35.054Z,251.00
2023-05-08T05:49:35.124Z,256.00
2023-05-08T05:50:35.099Z,277.00
2023-05-08T05:51:35.091Z,284.00
2023-05-08T05:52:35.060Z,290.00
2023-05-08T05:53:35.031Z,296.00
2023-05-08T05:54:35.081Z,304.00
2023-05-08T05:55:35.195Z,307.00
2023-05-08T05:56:35.075Z,310.00
2023-05-08T05:57:35.215Z,313.00
2023-05-08T05:58:35.676Z,317.00
2023-05-08T05:59:35.151Z,318.00
2023-05-08T06:00:35.145Z,324.00
2023-05-08T06:01:35.225Z,325.00
2023-05-08T06:02:35.284Z,323.00
2023-05-08T06:03:35.348Z,325.00
2023-05-08T06:04:35.231Z,327.00
2023-05-08T06:05:35.233Z,326.00
2023-05-08T06:06:35.276Z,327.00
2023-05-08T06:07:35.344Z,330.00
2023-05-08T06:08:35.698Z,334.00
2023-05-08T06:09:35.319Z,336.00
2023-05-08T06:10:35.364Z,338.00
2023-05-08T06:11:35.322Z,338.00
2023-05-08T06:12:35.346Z,331.00
2023-05-08T06:13:36.197Z,324.00
2023-05-08T06:14:35.414Z,319.00
2023-05-08T06:15:35.433Z,315.00
2023-05-08T06:16:35.477Z,310.00
2023-05-08T06:17:35.481Z,306.00
2023-05-08T06:18:35.571Z,308.00
2023-05-08T06:19:35.537Z,304.00
2023-05-08T06:20:35.678Z,302.00
2023-05-08T06:21:35.566Z,296.00
2023-05-08T06:22:36.270Z,292.00
2023-05-08T06:23:38.221Z,288.00
2023-05-08T06:24:35.900Z,286.00
2023-05-08T06:25:35.916Z,284.00
2023-05-08T06:26:35.906Z,283.00
2023-05-08T06:27:35.957Z,281.00
2023-05-08T06:28:36.001Z,279.00
2023-05-08T06:29:36.107Z,277.00
2023-05-08T06:30:36.179Z,273.00
2023-05-08T06:31:36.759Z,273.00
2023-05-08T06:32:36.736Z,279.00
2023-05-08T06:33:36.140Z,278.00
2023-05-08T06:34:38.187Z,281.00
2023-05-08T06:35:36.682Z,282.00
2023-05-08T06:36:36.770Z,281.00
2023-05-08T06:37:36.304Z,279.00
2023-05-08T06:38:36.729Z,280.00
2023-05-08T06:39:36.716Z,276.00
2023-05-08T06:40:36.413Z,272.00
2023-05-08T06:41:36.429Z,269.00
2023-05-08T06:42:36.699Z,266.00
2023-05-08T06:43:36.463Z,262.00
2023-05-08T06:44:36.550Z,258.00
2023-05-08T06:45:36.539Z,255.00
2023-05-08T06:46:36.582Z,252.00
2023-05-08T06:47:36.665Z,251.00
2023-05-08T06:48:36.591Z,252.00
2023-05-08T06:49:36.664Z,251.00
2023-05-08T06:50:37.211Z,254.00
2023-05-08T06:51:36.671Z,263.00
2023-05-08T06:52:36.742Z,260.00
2023-05-08T06:53:36.710Z,258.00
2023-05-08T06:54:36.789Z,258.00
2023-05-08T06:55:36.809Z,259.00
2023-05-08T06:56:36.802Z,262.00
2023-05-08T06:57:39.834Z,263.00
2023-05-08T06:58:36.859Z,264.00
2023-05-08T06:59:36.850Z,271.00
2023-05-08T07:00:36.884Z,275.00
2023-05-08T07:01:36.924Z,281.00
2023-05-08T07:02:36.879Z,283.00
2023-05-08T07:03:36.902Z,279.00
2023-05-08T07:04:36.866Z,272.00
2023-05-08T07:05:36.814Z,265.00
2023-05-08T07:06:36.830Z,265.00
2023-05-08T07:07:36.821Z,264.00
2023-05-08T07:08:36.809Z,264.00
2023-05-08T07:09:36.776Z,266.00
2023-05-08T07:10:37.286Z,266.00
2023-05-08T07:11:36.790Z,268.00
2023-05-08T07:12:36.801Z,269.00
2023-05-08T07:13:36.777Z,273.00
2023-05-08T07:14:36.857Z,279.00
2023-05-08T07:15:37.682Z,280.00
2023-05-08T07:16:36.769Z,284.00
2023-05-08T07:17:36.809Z,286.00
2023-05-08T07:18:36.811Z,313.00
2023-05-08T07:19:36.897Z,309.00
2023-05-08T07:20:36.770Z,301.00
2023-05-08T07:21:36.688Z,288.00
2023-05-08T07:22:36.725Z,283.00
2023-05-08T07:23:36.708Z,281.00
2023-05-08T07:24:36.668Z,283.00
2023-05-08T07:25:36.757Z,284.00
2023-05-08T07:26:39.399Z,282.00
2023-05-08T07:27:36.715Z,283.00
2023-05-08T07:28:36.651Z,281.00
2023-05-08T07:29:36.656Z,281.00
2023-05-08T07:30:36.768Z,281.00
2023-05-08T07:31:36.730Z,277.00
2023-05-08T07:32:36.634Z,276.00
2023-05-08T07:33:37.368Z,274.00
2023-05-08T07:34:36.674Z,272.00
2023-05-08T07:35:36.720Z,270.00
2023-05-08T07:36:36.612Z,270.00
2023-05-08T07:37:36.724Z,276.00
2023-05-08T07:38:39.787Z,280.00
2023-05-08T07:39:36.673Z,286.00
2023-05-08T07:40:36.645Z,291.00
2023-05-08T07:41:36.600Z,295.00
2023-05-08T07:42:36.625Z,298.00
2023-05-08T07:43:36.538Z,307.00
2023-05-08T07:44:46.965Z,315.00
2023-05-08T07:45:37.708Z,316.00
2023-05-08T07:46:36.572Z,319.00
2023-05-08T07:47:37.241Z,320.00
2023-05-08T07:48:36.479Z,322.00
2023-05-08T07:49:36.512Z,326.00
2023-05-08T07:50:36.514Z,331.00
2023-05-08T07:51:36.468Z,332.00
2023-05-08T07:52:36.709Z,333.00
2023-05-08T07:53:36.467Z,336.00
2023-05-08T07:54:36.431Z,335.00
2023-05-08T07:55:36.440Z,337.00
2023-05-08T07:56:36.437Z,336.00
2023-05-08T07:57:36.754Z,337.00
2023-05-08T07:58:36.795Z,337.00
2023-05-08T07:59:36.442Z,336.00
2023-05-08T08:00:36.448Z,337.00
2023-05-08T08:01:36.466Z,338.00
2023-05-08T08:02:36.518Z,340.00
2023-05-08T08:03:36.614Z,342.00
2023-05-08T08:04:36.632Z,344.00
2023-05-08T08:05:36.534Z,344.00
2023-05-08T08:06:36.547Z,347.00
2023-05-08T08:07:36.601Z,345.00
2023-05-08T08:08:36.625Z,343.00
2023-05-08T08:09:36.674Z,342.00
2023-05-08T08:10:36.707Z,341.00
2023-05-08T08:11:36.692Z,338.00
2023-05-08T08:12:36.740Z,335.00
2023-05-08T08:13:36.734Z,334.00
2023-05-08T08:14:36.864Z,334.00
2023-05-08T08:15:36.822Z,333.00
2023-05-08T08:16:36.847Z,332.00
2023-05-08T08:17:36.877Z,330.00
2023-05-08T08:18:36.946Z,332.00
2023-05-08T08:19:36.900Z,335.00
2023-05-08T08:20:36.876Z,343.00
2023-05-08T08:21:36.904Z,345.00
2023-05-08T08:22:36.964Z,345.00
2023-05-08T08:23:37.249Z,346.00
2023-05-08T08:24:37.005Z,344.00
2023-05-08T08:25:37.012Z,344.00
2023-05-08T08:26:37.043Z,344.00
2023-05-08T08:27:39.806Z,361.00
2023-05-08T08:28:37.052Z,354.00
2023-05-08T08:29:37.502Z,346.00
2023-05-08T08:30:37.224Z,345.00
2023-05-08T08:31:37.114Z,344.00
2023-05-08T08:32:37.058Z,340.00
2023-05-08T08:33:37.042Z,337.00
2023-05-08T08:34:36.965Z,336.00
2023-05-08T08:35:37.763Z,335.00
2023-05-08T08:36:37.013Z,336.00
2023-05-08T08:37:37.279Z,335.00
2023-05-08T08:38:36.968Z,336.00
2023-05-08T08:39:36.974Z,348.00
2023-05-08T08:40:36.975Z,355.00
2023-05-08T08:41:36.939Z,356.00
2023-05-08T08:42:37.791Z,356.00
2023-05-08T08:43:36.999Z,360.00
2023-05-08T08:44:38.245Z,362.00
2023-05-08T08:45:36.912Z,363.00
2023-05-08T08:46:37.047Z,364.00
2023-05-08T08:47:36.942Z,363.00
2023-05-08T08:48:37.280Z,359.00
2023-05-08T08:49:36.929Z,357.00
2023-05-08T08:50:36.891Z,357.00
2023-05-08T08:51:37.738Z,358.00
2023-05-08T08:52:36.870Z,362.00
2023-05-08T08:53:36.836Z,366.00
2023-05-08T08:54:36.892Z,369.00
2023-05-08T08:55:36.876Z,371.00
2023-05-08T08:56:36.818Z,374.00
2023-05-08T08:57:37.251Z,374.00
2023-05-08T08:58:38.854Z,376.00
2023-05-08T08:59:36.887Z,381.00
2023-05-08T09:00:36.845Z,382.00
2023-05-08T09:01:36.915Z,380.00
2023-05-08T09:02:37.114Z,380.00
2023-05-08T09:03:37.016Z,382.00
2023-05-08T09:04:36.951Z,380.00
2023-05-08T09:05:36.946Z,383.00
2023-05-08T09:06:36.978Z,382.00
2023-05-08T09:07:37.035Z,380.00
2023-05-08T09:08:37.035Z,378.00
2023-05-08T09:09:37.732Z,376.00
2023-05-08T09:10:37.106Z,374.00
2023-05-08T09:11:37.035Z,394.00
2023-05-08T09:12:37.104Z,387.00
2023-05-08T09:13:37.161Z,382.00
2023-05-08T09:14:37.097Z,381.00
2023-05-08T09:15:37.130Z,379.00
2023-05-08T09:16:37.267Z,376.00
2023-05-08T09:17:37.228Z,375.00
2023-05-08T09:18:37.282Z,375.00
2023-05-08T09:19:37.263Z,375.00
2023-05-08T09:20:37.243Z,376.00
2023-05-08T09:21:37.275Z,373.00
2023-05-08T09:22:37.285Z,375.00
2023-05-08T09:23:37.802Z,376.00
2023-05-08T09:24:37.292Z,376.00
2023-05-08T09:25:37.300Z,378.00
2023-05-08T09:26:37.362Z,380.00
2023-05-08T09:27:37.369Z,384.00
2023-05-08T09:28:37.404Z,388.00
2023-05-08T09:29:38.243Z,391.00
2023-05-08T09:30:39.253Z,392.00
2023-05-08T09:31:37.518Z,396.00
2023-05-08T09:32:37.497Z,404.00
2023-05-08T09:33:38.255Z,406.00
2023-05-08T09:34:37.583Z,408.00
2023-05-08T09:35:37.770Z,405.00
2023-05-08T09:36:37.645Z,405.00
2023-05-08T09:37:37.757Z,406.00
2023-05-08T09:38:37.658Z,407.00
2023-05-08T09:39:37.572Z,408.00
2023-05-08T09:40:38.304Z,409.00
2023-05-08T09:41:37.687Z,411.00
2023-05-08T09:42:37.681Z,410.00
2023-05-08T09:43:37.745Z,412.00
2023-05-08T09:44:37.722Z,414.00
2023-05-08T09:45:37.736Z,414.00
2023-05-08T09:46:41.076Z,415.00
2023-05-08T09:47:38.312Z,414.00
2023-05-08T09:48:37.768Z,413.00
2023-05-08T09:49:37.753Z,410.00
2023-05-08T09:50:37.845Z,410.00
2023-05-08T09:51:37.765Z,408.00
2023-05-08T09:52:37.786Z,407.00
2023-05-08T09:53:37.763Z,405.00
2023-05-08T09:54:37.691Z,401.00
2023-05-08T09:55:37.873Z,401.00
2023-05-08T09:56:37.724Z,400.00
2023-05-08T09:57:37.722Z,399.00
2023-05-08T09:58:37.723Z,399.00
2023-05-08T09:59:39.165Z,396.00
2023-05-08T10:00:37.825Z,395.00
2023-05-08T10:01:37.735Z,396.00
2023-05-08T10:02:37.737Z,396.00
2023-05-08T10:03:37.859Z,394.00
2023-05-08T10:04:37.938Z,395.00
2023-05-08T10:05:37.789Z,396.00
2023-05-08T10:06:37.754Z,399.00
2023-05-08T10:07:37.778Z,396.00
2023-05-08T10:08:37.650Z,395.00
2023-05-08T10:09:49.687Z,392.00
2023-05-08T10:10:38.684Z,387.00
2023-05-08T10:11:37.754Z,384.00
2023-05-08T10:12:37.789Z,379.00
2023-05-08T10:13:37.853Z,377.00
2023-05-08T10:14:38.371Z,376.00
2023-05-08T10:15:37.630Z,376.00
2023-05-08T10:16:38.269Z,378.00
2023-05-08T10:17:37.582Z,377.00
2023-05-08T10:18:37.661Z,375.00
2023-05-08T10:19:37.659Z,372.00
2023-05-08T10:20:37.549Z,374.00
2023-05-08T10:21:37.599Z,373.00
2023-05-08T10:22:37.596Z,374.00
2023-05-08T10:23:37.478Z,372.00
2023-05-08T10:24:37.782Z,373.00
2023-05-08T10:25:37.519Z,375.00
2023-05-08T10:26:37.514Z,377.00
2023-05-08T10:27:37.601Z,378.00
2023-05-08T10:28:37.519Z,379.00
2023-05-08T10:29:37.597Z,380.00
2023-05-08T10:30:37.627Z,380.00
2023-05-08T10:31:37.742Z,381.00
2023-05-08T10:32:37.708Z,381.00
2023-05-08T10:33:37.666Z,380.00
2023-05-08T10:34:37.772Z,379.00
2023-05-08T10:35:37.756Z,379.00
2023-05-08T10:36:37.771Z,381.00
2023-05-08T10:37:37.741Z,380.00
2023-05-08T10:38:37.837Z,383.00
2023-05-08T10:39:37.855Z,384.00
2023-05-08T10:40:37.837Z,380.00
2023-05-08T10:41:37.904Z,377.00
2023-05-08T10:42:37.893Z,373.00
2023-05-08T10:43:37.938Z,374.00
2023-05-08T10:44:38.023Z,380.00
2023-05-08T10:45:38.856Z,381.00
2023-05-08T10:46:38.099Z,382.00
2023-05-08T10:47:38.100Z,385.00
2023-05-08T10:48:38.052Z,384.00
2023-05-08T10:49:38.048Z,381.00
2023-05-08T10:50:38.109Z,377.00
2023-05-08T10:51:38.094Z,375.00
2023-05-08T10:52:38.139Z,375.00
2023-05-08T10:53:38.224Z,376.00
2023-05-08T10:54:38.200Z,375.00
2023-05-08T10:55:38.133Z,372.00
2023-05-08T10:56:38.157Z,367.00
2023-05-08T10:57:38.215Z,365.00
2023-05-08T10:58:38.240Z,366.00
2023-05-08T10:59:38.259Z,365.00
2023-05-08T11:00:38.234Z,363.00
2023-05-08T11:01:38.333Z,363.00
2023-05-08T11:02:38.375Z,361.00
2023-05-08T11:03:38.371Z,362.00
2023-05-08T11:04:38.392Z,361.00
2023-05-08T11:05:38.366Z,357.00
2023-05-08T11:06:38.366Z,354.00
2023-05-08T11:07:38.415Z,352.00
2023-05-08T11:08:38.426Z,351.00
2023-05-08T11:09:38.441Z,348.00
2023-05-08T11:10:39.341Z,347.00
2023-05-08T11:11:38.559Z,345.00
2023-05-08T11:12:38.576Z,344.00
2023-05-08T11:13:38.631Z,345.00
2023-05-08T11:14:38.528Z,347.00
2023-05-08T11:15:38.500Z,347.00
2023-05-08T11:16:38.681Z,348.00
2023-05-08T11:17:38.840Z,347.00
2023-05-08T11:18:49.067Z,344.00
2023-05-08T11:19:39.606Z,344.00
2023-05-08T11:20:38.595Z,346.00
2023-05-08T11:21:39.451Z,348.00
2023-05-08T11:22:38.588Z,350.00
2023-05-08T11:23:38.837Z,352.00
2023-05-08T11:24:38.560Z,352.00
2023-05-08T11:25:38.567Z,351.00
2023-05-08T11:26:38.515Z,350.00
2023-05-08T11:27:38.509Z,356.00
2023-05-08T11:28:38.535Z,365.00
2023-05-08T11:29:40.322Z,366.00
2023-05-08T11:30:38.532Z,364.00
2023-05-08T11:31:38.500Z,366.00
2023-05-08T11:32:38.546Z,365.00
2023-05-08T11:33:38.463Z,367.00
2023-05-08T11:34:38.453Z,368.00
2023-05-08T11:35:38.475Z,372.00
2023-05-08T11:36:38.473Z,373.00
2023-05-08T11:37:38.482Z,375.00
2023-05-08T11:38:38.584Z,374.00
2023-05-08T11:39:38.507Z,371.00
2023-05-08T11:40:38.594Z,369.00
2023-05-08T11:41:38.600Z,370.00
2023-05-08T11:42:38.614Z,369.00
2023-05-08T11:43:38.621Z,370.00
2023-05-08T11:44:38.662Z,370.00
2023-05-08T11:45:38.844Z,370.00
2023-05-08T11:46:38.800Z,370.00
2023-05-08T11:47:38.854Z,368.00
2023-05-08T11:48:38.815Z,370.00
2023-05-08T11:49:38.858Z,367.00
2023-05-08T11:50:38.872Z,368.00
2023-05-08T11:51:38.948Z,367.00
2023-05-08T11:52:38.986Z,366.00
2023-05-08T11:53:39.023Z,364.00
2023-05-08T11:54:39.039Z,366.00
2023-05-08T11:55:39.118Z,367.00
2023-05-08T11:56:39.123Z,369.00
2023-05-08T11:57:39.187Z,369.00
2023-05-08T11:58:39.178Z,370.00
2023-05-08T11:59:39.232Z,366.00
2023-05-08T12:00:39.302Z,367.00
2023-05-08T12:01:39.308Z,373.00
2023-05-08T12:02:39.442Z,378.00
2023-05-08T12:03:39.541Z,380.00
2023-05-08T12:04:39.406Z,383.00
2023-05-08T12:05:39.438Z,381.00
2023-05-08T12:06:39.518Z,381.00
2023-05-08T12:07:39.503Z,381.00
2023-05-08T12:08:39.518Z,381.00
2023-05-08T12:09:39.575Z,381.00
2023-05-08T12:10:39.613Z,381.00
2023-05-08T12:11:39.629Z,382.00
2023-05-08T12:12:39.724Z,381.00
2023-05-08T12:13:39.740Z,385.00
2023-05-08T12:14:39.738Z,393.00
2023-05-08T12:15:39.806Z,390.00
2023-05-08T12:16:39.859Z,389.00
2023-05-08T12:17:39.985Z,386.00
2023-05-08T12:18:40.149Z,382.00
2023-05-08T12:19:39.931Z,377.00
2023-05-08T12:20:40.011Z,373.00
2023-05-08T12:21:40.029Z,371.00
2023-05-08T12:22:40.069Z,367.00
2023-05-08T12:23:40.335Z,365.00
2023-05-08T12:24:40.131Z,363.00
2023-05-08T12:25:40.168Z,362.00
2023-05-08T12:26:40.181Z,360.00
2023-05-08T12:27:40.262Z,357.00
2023-05-08T12:28:40.307Z,355.00